createdAt,value
2023-05-10T00:03:29.590Z,92373.25
2023-05-10T00:08:31.432Z,92367.91
2023-05-10T00:13:33.607Z,92373.66
2023-05-10T00:18:35.374Z,92370.69
2023-05-10T00:23:37.201Z,92376.22
2023-05-10T00:28:39.014Z,92386.78
2023-05-10T00:33:40.819Z,92365.69
2023-05-10T00:38:42.573Z,92382.19
2023-05-10T00:43:44.416Z,92386.69
2023-05-10T00:48:46.412Z,92388.25
2023-05-10T00:53:50.350Z,92381.53
2023-05-10T00:58:52.194Z,92392.97
2023-05-10T01:03:55.073Z,92381.50
2023-05-10T01:08:57.271Z,92386.47
2023-05-10T01:13:59.690Z,92389.81
2023-05-10T01:19:01.645Z,92387.00
2023-05-10T01:24:15.654Z,92379.50
2023-05-10T01:29:45.374Z,92386.91
2023-05-10T01:34:56.943Z,92391.16
2023-05-10T01:40:06.556Z,92385.00
2023-05-10T01:45:32.857Z,92379.06
2023-05-10T01:50:37.275Z,92370.03
2023-05-10T01:55:44.698Z,92372.53
2023-05-10T02:00:49.956Z,92373.22
2023-05-10T02:05:54.429Z,92382.66
2023-05-10T02:10:58.598Z,92376.53
2023-05-10T02:16:01.005Z,92399.69
2023-05-10T02:21:04.171Z,92388.69
2023-05-10T02:26:07.514Z,92388.00
2023-05-10T02:31:11.532Z,92375.44
2023-05-10T02:36:14.912Z,92372.91
2023-05-10T02:41:17.402Z,92380.31
2023-05-10T02:46:19.904Z,92375.94
2023-05-10T02:51:26.541Z,92375.22
2023-05-10T02:56:35.370Z,92383.38
2023-05-10T03:01:37.202Z,92372.06
2023-05-10T03:06:39.056Z,92367.84
2023-05-10T03:12:01.530Z,92355.94
2023-05-10T03:17:22.224Z,92376.00
2023-05-10T03:22:31.629Z,92375.13
2023-05-10T03:27:34.959Z,92361.53
2023-05-10T03:32:37.086Z,92374.75
2023-05-10T03:37:39.561Z,92370.88
2023-05-10T03:42:41.366Z,92375.06
2023-05-10T03:47:43.159Z,92375.31
2023-05-10T03:52:45.584Z,92371.34
2023-05-10T03:57:47.563Z,92372.69
2023-05-10T04:02:49.435Z,92367.50
2023-05-10T04:07:54.413Z,92384.59
2023-05-10T04:12:56.293Z,92379.31
2023-05-10T04:17:58.171Z,92385.41
2023-05-10T04:23:00.023Z,92381.59
2023-05-10T04:28:01.825Z,92372.59
2023-05-10T04:33:03.782Z,92378.28
2023-05-10T04:38:05.690Z,92386.75
2023-05-10T04:43:07.502Z,92390.66
2023-05-10T04:48:09.295Z,92383.88
2023-05-10T04:53:11.033Z,92387.94
2023-05-10T04:58:12.870Z,92390.72
2023-05-10T05:03:14.785Z,92406.28
2023-05-10T05:08:18.018Z,92397.38
2023-05-10T05:13:20.006Z,92406.88
2023-05-10T05:18:24.455Z,92402.56
2023-05-10T05:23:26.712Z,92386.47
2023-05-10T05:28:33.807Z,92410.59
2023-05-10T05:33:35.637Z,92413.75
2023-05-10T05:38:37.472Z,92406.56
2023-05-10T05:43:39.257Z,92404.59
2023-05-10T05:48:41.115Z,92411.13
2023-05-10T05:53:42.922Z,92410.19
2023-05-10T05:58:45.737Z,92410.06
2023-05-10T06:03:47.768Z,92419.47
2023-05-10T06:08:49.612Z,92415.56
2023-05-10T06:13:51.382Z,92413.84
2023-05-10T06:18:53.178Z,92413.63
2023-05-10T06:23:55.025Z,92422.25
2023-05-10T06:28:56.810Z,92415.16
2023-05-10T06:33:58.891Z,92417.59
2023-05-10T06:39:00.668Z,92422.50
2023-05-10T06:44:02.434Z,92426.25
2023-05-10T06:49:04.400Z,92426.91
2023-05-10T06:54:06.238Z,92425.75
2023-05-10T06:59:08.437Z,92418.38
2023-05-10T07:04:10.195Z,92429.94
2023-05-10T07:09:12.022Z,92441.03
2023-05-10T07:14:13.766Z,92430.09
2023-05-10T07:19:15.839Z,92435.94
2023-05-10T07:24:17.785Z,92433.28
2023-05-10T07:29:19.560Z,92433.69
2023-05-10T07:34:21.324Z,92440.63
2023-05-10T07:39:27.750Z,92440.16
2023-05-10T07:44:30.156Z,92453.63
2023-05-10T07:49:31.937Z,92445.97
2023-05-10T07:54:34.814Z,92452.34
2023-05-10T07:59:37.440Z,92447.94
2023-05-10T08:04:39.387Z,92458.50
2023-05-10T08:09:41.301Z,92461.13
2023-05-10T08:14:43.588Z,92452.19
2023-05-10T08:19:45.403Z,92454.72
2023-05-10T08:24:47.325Z,92450.22
2023-05-10T08:29:50.399Z,92457.31
2023-05-10T08:34:52.404Z,92459.44
2023-05-10T08:39:54.171Z,92460.78
2023-05-10T08:44:58.012Z,92459.31
2023-05-10T08:50:00.298Z,92461.09
2023-05-10T08:55:02.257Z,92473.00
2023-05-10T09:00:04.702Z,92481.84
2023-05-10T09:05:07.703Z,92470.75
2023-05-10T09:10:10.482Z,92462.81
2023-05-10T09:15:16.001Z,92456.84
2023-05-10T09:20:22.078Z,92482.63
2023-05-10T09:25:23.978Z,92479.03
2023-05-10T09:30:28.340Z,92479.31
2023-05-10T09:35:32.628Z,92477.06
2023-05-10T09:40:34.435Z,92477.41
2023-05-10T09:45:38.610Z,92476.91
2023-05-10T09:50:41.301Z,92487.47
2023-05-10T09:55:46.891Z,92478.41
2023-05-10T10:00:52.308Z,92459.22
2023-05-10T10:05:56.915Z,92483.03
2023-05-10T10:10:58.887Z,92486.31
2023-05-10T10:16:00.698Z,92487.91
2023-05-10T10:21:03.262Z,92471.50
2023-05-10T10:26:06.267Z,92473.19
2023-05-10T10:31:27.512Z,92469.31
2023-05-10T10:36:29.765Z,92454.16
2023-05-10T10:41:34.267Z,92461.47
2023-05-10T10:47:01.967Z,92473.47
2023-05-10T10:52:33.932Z,92463.59
2023-05-10T10:57:41.907Z,92469.69
2023-05-10T11:02:52.556Z,92447.41
2023-05-10T11:07:58.990Z,92453.50
2023-05-10T11:13:06.626Z,92438.16
2023-05-10T11:18:32.667Z,92454.31
2023-05-10T11:23:50.513Z,92460.69
2023-05-10T11:28:55.835Z,92450.56
2023-05-10T11:33:59.818Z,92444.25
2023-05-10T11:39:01.630Z,92454.53
2023-05-10T11:44:03.570Z,92447.06
2023-05-10T11:49:07.920Z,92455.47
2023-05-10T11:54:11.778Z,92447.44
2023-05-10T11:59:15.749Z,92450.44
2023-05-10T12:04:18.221Z,92458.47
2023-05-10T12:09:31.521Z,92455.63
2023-05-10T12:14:41.776Z,92450.34
2023-05-10T12:19:44.710Z,92440.16
2023-05-10T12:24:46.495Z,92444.94
2023-05-10T12:29:49.225Z,92453.50
2023-05-10T12:34:54.293Z,92447.41
2023-05-10T12:39:56.025Z,92458.63
2023-05-10T12:44:58.493Z,92455.84
2023-05-10T12:50:03.704Z,92460.72
2023-05-10T12:55:06.002Z,92467.31
2023-05-10T13:00:08.379Z,92461.19
2023-05-10T13:05:10.475Z,92468.66
2023-05-10T13:10:12.372Z,92464.56
2023-05-10T13:15:14.092Z,92458.47
2023-05-10T13:20:16.586Z,92454.78
2023-05-10T13:25:18.516Z,92469.03
2023-05-10T13:30:20.385Z,92434.69
2023-05-10T13:35:22.183Z,92470.75
2023-05-10T13:40:24.059Z,92443.88
2023-05-10T13:45:25.897Z,92469.84
2023-05-10T13:50:28.042Z,92460.84
2023-05-10T13:55:29.920Z,92454.38
2023-05-10T14:00:31.668Z,92444.94
2023-05-10T14:05:33.660Z,92455.22
2023-05-10T14:10:35.377Z,92452.81
2023-05-10T14:15:37.131Z,92455.19
2023-05-10T14:20:38.900Z,92460.22
2023-05-10T14:25:43.730Z,92431.44
2023-05-10T14:30:45.801Z,92426.69
2023-05-10T14:35:48.006Z,92447.50
2023-05-10T14:40:49.801Z,92434.47
2023-05-10T14:45:51.595Z,92425.53
2023-05-10T14:50:53.632Z,92447.34
2023-05-10T14:55:55.459Z,92452.88
2023-05-10T15:00:57.819Z,92444.50
2023-05-10T15:06:00.215Z,92445.97
2023-05-10T15:11:02.486Z,92440.53
2023-05-10T15:16:04.316Z,92441.16
2023-05-10T15:21:06.082Z,92444.97
2023-05-10T15:26:07.888Z,92445.94
2023-05-10T15:31:09.717Z,92455.13
2023-05-10T15:36:11.558Z,92455.56
2023-05-10T15:41:13.361Z,92440.66
2023-05-10T15:46:15.224Z,92446.88
2023-05-10T15:51:17.012Z,92463.69
2023-05-10T15:56:18.917Z,92461.03
2023-05-10T16:01:21.265Z,92461.16
2023-05-10T16:06:23.221Z,92467.38
2023-05-10T16:11:25.080Z,92465.47
2023-05-10T16:16:26.979Z,92466.53
2023-05-10T16:21:32.232Z,92473.75
2023-05-10T16:26:40.556Z,92451.91
2023-05-10T16:31:42.551Z,92481.22
2023-05-10T16:36:44.369Z,92476.09
2023-05-10T16:41:46.190Z,92476.84
2023-05-10T16:46:48.780Z,92485.31
2023-05-10T16:51:50.713Z,92480.78
2023-05-10T16:56:52.571Z,92477.28
2023-05-10T17:01:55.046Z,92470.50
2023-05-10T17:06:57.684Z,92479.88
2023-05-10T17:11:59.507Z,92476.47
2023-05-10T17:17:01.503Z,92483.78
2023-05-10T17:22:03.711Z,92490.03
2023-05-10T17:27:05.700Z,92487.56
2023-05-10T17:32:09.173Z,92489.78
2023-05-10T17:37:10.948Z,92464.81
2023-05-10T17:42:13.759Z,92490.69
2023-05-10T17:47:15.767Z,92483.59
2023-05-10T17:52:17.719Z,92484.94
2023-05-10T17:57:20.748Z,92475.94
2023-05-10T18:02:22.646Z,92480.88
2023-05-10T18:07:25.632Z,92478.84
2023-05-10T18:12:27.623Z,92470.41
2023-05-10T18:17:29.620Z,92470.63
2023-05-10T18:22:31.505Z,92468.09
2023-05-10T18:27:33.355Z,92470.38
2023-05-10T18:32:35.399Z,92482.28
2023-05-10T18:37:38.692Z,92474.88
2023-05-10T18:42:46.549Z,92493.72
2023-05-10T18:47:48.614Z,92485.88
2023-05-10T18:52:50.628Z,92488.13
2023-05-10T18:57:52.694Z,92468.78
2023-05-10T19:02:54.581Z,92482.84
2023-05-10T19:07:56.798Z,92504.63
2023-05-10T19:12:58.573Z,92489.66
2023-05-10T19:18:00.579Z,92505.75
2023-05-10T19:23:10.025Z,92511.41
2023-05-10T19:28:12.612Z,92508.53
2023-05-10T19:33:14.526Z,92504.72
2023-05-10T19:38:16.710Z,92510.00
2023-05-10T19:43:18.914Z,92514.00
2023-05-10T19:48:21.223Z,92492.31
2023-05-10T19:53:23.318Z,92507.78
2023-05-10T19:58:25.135Z,92523.25
2023-05-10T20:03:27.393Z,92517.72
2023-05-10T20:08:29.548Z,92516.38
2023-05-10T20:13:31.796Z,92509.88
2023-05-10T20:18:33.583Z,92509.34
2023-05-10T20:23:35.676Z,92516.81
2023-05-10T20:28:37.854Z,92521.28
2023-05-10T20:33:39.802Z,92512.94
2023-05-10T20:38:41.605Z,92496.06
2023-05-10T20:43:43.393Z,92489.34
2023-05-10T20:48:45.213Z,92504.56
2023-05-10T20:53:47.079Z,92485.13
2023-05-10T20:58:48.928Z,92500.78
2023-05-10T21:03:50.698Z,92496.75
2023-05-10T21:08:52.656Z,92490.91
2023-05-10T21:13:54.547Z,92490.72
2023-05-10T21:18:56.485Z,92488.06
2023-05-10T21:23:58.371Z,92488.41
2023-05-10T21:29:00.147Z,92487.13
2023-05-10T21:34:01.948Z,92496.63
2023-05-10T21:39:03.729Z,92483.06
2023-05-10T21:44:05.804Z,92486.84
2023-05-10T21:49:08.198Z,92483.91
2023-05-10T21:54:09.959Z,92489.78
2023-05-10T21:59:11.928Z,92475.00
2023-05-10T22:04:13.738Z,92486.03
2023-05-10T22:09:15.777Z,92490.59
2023-05-10T22:14:17.536Z,92481.84
2023-05-10T22:19:19.608Z,92471.19
2023-05-10T22:24:21.514Z,92493.44
2023-05-10T22:29:23.747Z,92484.84
2023-05-10T22:34:25.555Z,92481.97
2023-05-10T22:39:27.382Z,92476.47
2023-05-10T22:44:29.180Z,92464.81
2023-05-10T22:49:31.645Z,92468.25
2023-05-10T22:54:35.634Z,92465.75
2023-05-10T22:59:38.079Z,92470.16
2023-05-10T23:04:39.923Z,92463.34
2023-05-10T23:09:42.016Z,92455.31
2023-05-10T23:14:46.304Z,92456.88
2023-05-10T23:19:48.077Z,92453.75
2023-05-10T23:24:49.879Z,92451.09
2023-05-10T23:29:55.436Z,92465.25
2023-05-10T23:34:57.333Z,92456.44
2023-05-10T23:39:59.202Z,92456.13
2023-05-10T23:45:01.026Z,92453.41
2023-05-10T23:50:03.049Z,92457.34
2023-05-10T23:55:05.121Z,92437.47
